Time;durP1;ratioP1;P1;durP2;ratioP2;P2;SDS_P1;SDS_P2;PMS_P1;PMS_P2;Temp;Humidity;BMP_temperature;BMP_pressure;BME280_temperature;BME280_humidity;BME280_pressure;Samples;Min_cycle;Max_cycle;Signal;HPM_P1;HPM_P2
2023/04/02 00:00:20;;;;;;;0.20;0.20;;;13.10;65.40;12.90;95596.00;;;;5136161;27;20217;-82
2023/04/02 00:02:58;;;;;;;0.30;0.20;;;13.10;65.60;12.90;95597.00;;;;5108334;28;20198;-81
2023/04/02 00:05:54;;;;;;;0.40;0.10;;;13.00;65.50;13.00;95594.00;;;;5126730;27;20209;-82
2023/04/02 00:08:47;;;;;;;0.20;0.20;;;13.10;65.80;13.00;95594.00;;;;5124991;27;20198;-81
2023/04/02 00:11:30;;;;;;;0.10;0.10;;;13.00;65.60;13.00;95592.00;;;;5127926;27;20198;-82
2023/04/02 00:14:03;;;;;;;1.60;0.10;;;13.00;65.60;13.00;95600.00;;;;5119880;27;20579;-79
2023/04/02 00:16:32;;;;;;;0.20;0.10;;;13.00;65.60;13.00;95602.00;;;;5128323;27;20194;-79
2023/04/02 00:19:08;;;;;;;0.10;0.10;;;13.00;65.60;13.00;95607.00;;;;5126564;27;20265;-78
2023/04/02 00:21:38;;;;;;;0.30;0.20;;;13.00;65.60;13.00;95604.00;;;;5123193;27;20201;-78
2023/04/02 00:24:16;;;;;;;0.10;0.10;;;13.00;65.50;13.00;95604.00;;;;5121574;27;20633;-78
2023/04/02 00:26:47;;;;;;;0.53;0.30;;;13.00;65.70;13.00;95602.00;;;;5131013;27;20191;-78
2023/04/02 00:29:17;;;;;;;0.30;0.20;;;13.10;65.80;13.00;95607.00;;;;5118919;28;20278;-79
2023/04/02 00:31:49;;;;;;;0.10;0.10;;;13.00;66.60;13.10;95608.00;;;;5130669;27;20221;-78
2023/04/02 00:34:22;;;;;;;0.20;0.20;;;13.10;65.90;13.10;95605.00;;;;5134329;27;20222;-79
2023/04/02 00:36:51;;;;;;;0.27;0.10;;;13.10;65.80;13.10;95612.00;;;;5125420;27;20201;-81
2023/04/02 00:39:23;;;;;;;0.20;0.20;;;13.10;65.70;13.10;95609.00;;;;5113913;28;20216;-82
2023/04/02 00:42:03;;;;;;;0.10;0.10;;;13.10;65.70;13.10;95607.00;;;;5136537;28;20185;-81
2023/04/02 00:44:37;;;;;;;0.40;0.10;;;13.10;65.70;13.10;95606.00;;;;5136900;28;20212;-81
2023/04/02 00:47:14;;;;;;;0.10;0.10;;;13.10;65.70;13.10;95609.00;;;;5111828;28;20209;-81
2023/04/02 00:49:43;;;;;;;0.13;0.13;;;13.10;65.60;13.10;95608.00;;;;5113273;28;20722;-81
2023/04/02 00:52:14;;;;;;;0.30;0.10;;;13.10;65.60;13.10;95618.00;;;;5126178;28;20276;-81
2023/04/02 00:54:49;;;;;;;0.20;0.20;;;13.10;65.70;13.10;95616.00;;;;5133426;27;20651;-81
2023/04/02 00:57:24;;;;;;;1.53;0.20;;;13.10;65.60;13.10;95619.00;;;;5099153;28;20201;-82
2023/04/02 00:59:58;;;;;;;0.17;0.17;;;13.10;65.60;13.10;95618.00;;;;5105571;28;20214;-81
2023/04/02 01:02:30;;;;;;;0.10;0.10;;;13.10;65.70;13.10;95616.00;;;;5108815;28;20538;-81
2023/04/02 01:05:01;;;;;;;0.50;0.27;;;13.10;65.70;13.10;95614.00;;;;5122090;27;20763;-81
2023/04/02 01:08:00;;;;;;;0.13;0.13;;;13.20;65.70;13.10;95621.00;;;;5128460;27;20198;-81
2023/04/02 01:10:48;;;;;;;0.30;0.20;;;13.10;65.70;13.10;95624.00;;;;5123976;27;20222;-80
2023/04/02 01:13:27;;;;;;;0.17;0.10;;;13.10;65.50;13.10;95620.00;;;;5128217;27;20211;-81
2023/04/02 01:16:07;;;;;;;0.20;0.20;;;13.10;65.40;13.10;95613.00;;;;5120840;28;20194;-81
2023/04/02 01:18:51;;;;;;;0.10;0.10;;;13.20;65.50;13.10;95623.00;;;;5118403;27;20186;-81
2023/04/02 01:21:41;;;;;;;0.20;0.20;;;13.10;65.50;13.10;95630.00;;;;5113068;28;20199;-81
2023/04/02 01:24:12;;;;;;;0.20;0.20;;;13.20;65.70;13.10;95628.00;;;;5126329;27;20229;-81
2023/04/02 01:26:59;;;;;;;0.23;0.13;;;13.20;65.50;13.10;95624.00;;;;5110094;27;20748;-81
2023/04/02 01:29:38;;;;;;;0.30;0.20;;;13.20;65.50;13.10;95617.00;;;;5099776;28;20297;-82
2023/04/02 01:32:10;;;;;;;0.30;0.10;;;13.20;65.50;13.20;95620.00;;;;5107343;27;20199;-81
2023/04/02 01:34:39;;;;;;;0.30;0.17;;;13.20;65.50;13.20;95635.00;;;;5140650;27;20308;-81
2023/04/02 01:37:26;;;;;;;0.43;0.20;;;13.20;65.50;13.20;95626.00;;;;5130762;27;20276;-81
2023/04/02 01:40:13;;;;;;;0.20;0.20;;;13.20;65.60;13.20;95633.00;;;;5120273;27;20747;-81
2023/04/02 01:42:53;;;;;;;0.13;0.13;;;13.20;65.60;13.20;95644.00;;;;5116622;27;20550;-82
2023/04/02 01:45:33;;;;;;;1.10;0.30;;;13.20;65.60;13.20;95635.00;;;;5117986;27;20635;-81
2023/04/02 01:48:02;;;;;;;0.17;0.10;;;13.20;65.60;13.20;95644.00;;;;5129217;27;20756;-81
2023/04/02 01:50:40;;;;;;;0.37;0.23;;;13.20;65.60;13.20;95641.00;;;;5139169;27;20253;-81
2023/04/02 01:53:13;;;;;;;0.23;0.20;;;13.20;65.50;13.20;95644.00;;;;5130579;27;20241;-82
2023/04/02 01:55:46;;;;;;;0.57;0.30;;;13.20;65.50;13.20;95641.00;;;;5138712;27;20733;-81
2023/04/02 01:58:17;;;;;;;0.10;0.00;;;13.20;65.50;13.20;95650.00;;;;5119010;27;20286;-81
2023/04/02 02:00:53;;;;;;;0.17;0.17;;;13.20;65.50;13.10;95649.00;;;;5120616;27;20261;-82
2023/04/02 02:03:21;;;;;;;0.37;0.20;;;13.20;65.50;13.20;95643.00;;;;5120862;27;20210;-81
2023/04/02 02:05:49;;;;;;;0.83;0.10;;;13.20;65.50;13.20;95652.00;;;;5124816;27;20281;-81
2023/04/02 02:08:33;;;;;;;0.37;0.20;;;13.20;65.50;13.10;95643.00;;;;5108098;28;20290;-81
2023/04/02 02:11:03;;;;;;;1.67;0.27;;;13.20;65.50;13.20;95645.00;;;;5097869;28;20249;-81
2023/04/02 02:13:31;;;;;;;0.30;0.17;;;13.20;65.50;13.10;95641.00;;;;5112711;27;20702;-82
2023/04/02 02:16:01;;;;;;;0.20;0.20;;;13.20;65.50;13.10;95653.00;;;;5117876;28;20292;-81
2023/04/02 02:18:30;;;;;;;0.30;0.30;;;13.20;65.50;13.10;95650.00;;;;5124709;27;20263;-81
2023/04/02 02:21:01;;;;;;;0.30;0.30;;;13.10;65.40;13.10;95655.00;;;;5118065;27;20217;-81
2023/04/02 02:23:31;;;;;;;0.30;0.20;;;13.10;65.30;13.10;95665.00;;;;5133596;27;20205;-81
2023/04/02 02:25:59;;;;;;;0.20;0.20;;;13.20;65.40;13.10;95657.00;;;;5118264;27;20194;-81
2023/04/02 02:28:32;;;;;;;0.20;0.20;;;13.10;65.20;13.00;95664.00;;;;5117267;27;20218;-81
2023/04/02 02:31:07;;;;;;;0.93;0.40;;;13.10;65.30;13.00;95660.00;;;;5114173;27;20838;-81
2023/04/02 02:33:43;;;;;;;0.23;0.20;;;13.10;65.30;13.00;95655.00;;;;5118444;27;20214;-81
2023/04/02 02:36:22;;;;;;;0.43;0.20;;;13.10;65.30;13.00;95662.00;;;;5117242;28;20211;-81
2023/04/02 02:38:57;;;;;;;0.10;0.10;;;13.10;65.30;13.00;95667.00;;;;5105244;27;20658;-81
2023/04/02 02:41:35;;;;;;;0.10;0.10;;;13.10;65.40;13.00;95665.00;;;;5134031;27;20239;-81
2023/04/02 02:44:16;;;;;;;0.33;0.10;;;13.10;65.40;12.90;95661.00;;;;5136571;27;20198;-81
2023/04/02 02:46:51;;;;;;;0.50;0.20;;;13.00;65.40;12.90;95666.00;;;;5136408;27;20190;-81
2023/04/02 02:49:27;;;;;;;0.20;0.20;;;13.00;65.50;12.90;95674.00;;;;5120209;27;20253;-81
2023/04/02 02:52:04;;;;;;;0.10;0.10;;;13.00;65.50;12.90;95673.00;;;;5122853;27;20190;-81
2023/04/02 02:54:35;;;;;;;0.30;0.30;;;13.00;65.50;12.90;95677.00;;;;5114003;27;20265;-81
2023/04/02 02:57:08;;;;;;;0.97;0.20;;;13.00;65.50;12.80;95675.00;;;;5137761;27;20194;-81
2023/04/02 02:59:37;;;;;;;1.70;0.20;;;13.00;65.60;12.80;95680.00;;;;5141492;27;20241;-81
2023/04/02 03:02:08;;;;;;;0.30;0.27;;;12.90;65.60;12.80;95689.00;;;;5143421;27;20632;-82
2023/04/02 03:04:36;;;;;;;0.20;0.20;;;12.90;65.70;12.80;95683.00;;;;5141931;27;20296;-82
2023/04/02 03:07:07;;;;;;;0.20;0.20;;;12.90;65.70;12.80;95691.00;;;;5141076;27;20266;-81
2023/04/02 03:09:48;;;;;;;0.30;0.20;;;12.90;65.70;12.80;95692.00;;;;5119540;28;20495;-82
2023/04/02 03:12:36;;;;;;;0.33;0.20;;;12.90;65.90;12.80;95695.00;;;;5126971;27;20617;-80
2023/04/02 03:15:16;;;;;;;0.20;0.20;;;12.90;65.90;12.80;95699.00;;;;5120612;27;20254;-80
2023/04/02 03:17:53;;;;;;;0.23;0.23;;;12.90;65.80;12.80;95699.00;;;;5145942;27;20217;-81
2023/04/02 03:20:33;;;;;;;0.50;0.20;;;12.90;65.90;12.80;95698.00;;;;5151636;27;20217;-81
2023/04/02 03:23:12;;;;;;;0.27;0.20;;;12.90;66.10;12.80;95706.00;;;;5152147;27;20205;-82
2023/04/02 03:25:46;;;;;;;0.63;0.20;;;12.90;66.20;12.80;95709.00;;;;5129892;27;20198;-81
2023/04/02 03:28:22;;;;;;;0.13;0.10;;;12.90;66.20;12.80;95704.00;;;;5146732;27;20217;-82
2023/04/02 03:30:57;;;;;;;0.43;0.20;;;12.90;66.40;12.80;95709.00;;;;5150745;27;20262;-83
2023/04/02 03:33:32;;;;;;;0.80;0.50;;;12.90;66.40;12.80;95715.00;;;;5103993;28;20219;-82
2023/04/02 03:36:13;;;;;;;0.20;0.20;;;12.80;66.40;12.80;95716.00;;;;5112117;28;20226;-81
2023/04/02 03:38:47;;;;;;;0.50;0.50;;;12.90;66.40;12.80;95724.00;;;;5097267;28;20285;-82
2023/04/02 03:41:22;;;;;;;0.33;0.30;;;12.90;66.40;12.80;95724.00;;;;5088624;28;20283;-81
2023/04/02 03:44:02;;;;;;;0.20;0.20;;;12.90;66.30;12.80;95721.00;;;;5127462;27;20186;-81
2023/04/02 03:46:39;;;;;;;0.20;0.20;;;12.90;66.40;12.80;95724.00;;;;5134528;27;20198;-81
2023/04/02 03:49:14;;;;;;;0.20;0.20;;;12.80;66.30;12.80;95724.00;;;;5109724;28;20238;-81
2023/04/02 03:51:52;;;;;;;1.10;0.20;;;12.90;66.30;12.80;95733.00;;;;5117123;27;20289;-81
2023/04/02 03:54:22;;;;;;;0.20;0.20;;;12.90;66.30;12.80;95725.00;;;;5103305;27;20246;-78
2023/04/02 03:56:52;;;;;;;0.20;0.20;;;12.90;66.30;12.80;95726.00;;;;5110901;27;20664;-78
2023/04/02 03:59:42;;;;;;;0.30;0.20;;;12.80;66.30;12.80;95729.00;;;;5123764;27;20215;-79
2023/04/02 04:02:33;;;;;;;0.70;0.20;;;12.80;66.40;12.80;95728.00;;;;5101254;27;20210;-81
2023/04/02 04:05:07;;;;;;;0.87;0.20;;;12.80;66.40;12.80;95741.00;;;;5124172;27;20227;-79
2023/04/02 04:07:41;;;;;;;1.50;0.13;;;12.90;66.40;12.80;95739.00;;;;5118254;27;20259;-79
2023/04/02 04:10:18;;;;;;;0.50;0.40;;;12.80;66.30;12.80;95742.00;;;;5121528;27;20682;-79
2023/04/02 04:12:49;;;;;;;0.20;0.20;;;12.80;66.30;12.80;95742.00;;;;5123716;27;20226;-79
2023/04/02 04:15:28;;;;;;;0.30;0.30;;;12.80;66.40;12.80;95747.00;;;;5114248;28;20214;-79
2023/04/02 04:18:03;;;;;;;0.57;0.20;;;12.90;66.40;12.80;95746.00;;;;5114766;28;20202;-78
2023/04/02 04:20:40;;;;;;;0.37;0.20;;;12.90;66.40;12.80;95750.00;;;;5114552;28;20218;-79
2023/04/02 04:23:24;;;;;;;0.33;0.20;;;12.80;66.30;12.80;95755.00;;;;5113057;28;20218;-78
2023/04/02 04:26:00;;;;;;;0.93;0.20;;;12.80;66.40;12.80;95753.00;;;;5099070;27;20205;-79
2023/04/02 04:28:40;;;;;;;0.10;0.10;;;12.80;66.30;12.80;95763.00;;;;5127221;27;20198;-79
2023/04/02 04:31:22;;;;;;;0.50;0.20;;;12.80;66.40;12.70;95765.00;;;;5134296;27;20281;-79
2023/04/02 04:34:04;;;;;;;0.93;0.27;;;12.80;66.40;12.80;95765.00;;;;5129643;27;20210;-79
2023/04/02 04:36:52;;;;;;;0.50;0.33;;;12.80;66.30;12.70;95772.00;;;;5105685;27;20222;-77
2023/04/02 04:39:29;;;;;;;0.20;0.20;;;12.80;66.30;12.70;95769.00;;;;5121101;27;20221;-79
2023/04/02 04:42:01;;;;;;;0.20;0.20;;;12.80;66.30;12.70;95775.00;;;;5105161;28;20193;-79
2023/04/02 04:44:47;;;;;;;0.40;0.37;;;12.80;66.30;12.70;95774.00;;;;5121660;27;20255;-79
2023/04/02 04:47:21;;;;;;;0.70;0.40;;;12.80;66.30;12.70;95780.00;;;;5084456;28;20631;-81
2023/04/02 04:49:56;;;;;;;0.40;0.23;;;12.80;66.30;12.70;95789.00;;;;5107301;28;20230;-82
2023/04/02 04:52:33;;;;;;;0.27;0.20;;;12.70;66.20;12.70;95790.00;;;;5122622;28;20754;-81
2023/04/02 04:55:01;;;;;;;0.20;0.20;;;12.80;66.30;12.70;95790.00;;;;5094103;28;20218;-81
2023/04/02 04:57:34;;;;;;;0.40;0.30;;;12.70;66.20;12.70;95796.00;;;;5116910;28;20236;-81
2023/04/02 05:00:13;;;;;;;0.83;0.30;;;12.70;66.30;12.60;95803.00;;;;5114638;28;20249;-81
2023/04/02 05:02:52;;;;;;;0.97;0.37;;;12.70;66.30;12.60;95800.00;;;;5094934;28;20203;-81
2023/04/02 05:05:28;;;;;;;0.43;0.30;;;12.70;66.30;12.60;95806.00;;;;5112679;28;20288;-78
2023/04/02 05:08:06;;;;;;;1.47;0.43;;;12.70;66.30;12.60;95818.00;;;;5117087;28;20194;-79
2023/04/02 05:10:42;;;;;;;2.00;0.30;;;12.70;66.30;12.60;95812.00;;;;5125039;28;20252;-80
2023/04/02 05:13:18;;;;;;;1.03;0.30;;;12.70;66.30;12.60;95815.00;;;;5135034;28;20198;-82
2023/04/02 05:15:55;;;;;;;0.53;0.20;;;12.70;67.10;12.60;95813.00;;;;5137988;27;20221;-81
2023/04/02 05:18:32;;;;;;;0.27;0.27;;;12.70;66.40;12.60;95820.00;;;;5120287;27;20244;-81
2023/04/02 05:21:07;;;;;;;0.33;0.20;;;12.70;66.40;12.70;95816.00;;;;5116429;28;20221;-81
2023/04/02 05:23:46;;;;;;;1.27;0.40;;;12.70;66.40;12.70;95818.00;;;;5115259;28;20235;-81
2023/04/02 05:26:21;;;;;;;0.50;0.50;;;12.70;66.50;12.70;95818.00;;;;5117455;28;20221;-81
2023/04/02 05:28:59;;;;;;;0.70;0.70;;;12.70;66.40;12.70;95818.00;;;;5117984;28;20222;-80
2023/04/02 05:31:35;;;;;;;1.70;0.50;;;12.70;66.40;12.70;95830.00;;;;5117445;28;20190;-81
2023/04/02 05:34:03;;;;;;;0.40;0.40;;;12.70;66.50;12.70;95829.00;;;;5122877;28;20244;-81
2023/04/02 05:36:32;;;;;;;0.90;0.30;;;12.70;66.50;12.70;95835.00;;;;5118589;28;20194;-81
2023/04/02 05:39:01;;;;;;;0.70;0.70;;;12.70;66.40;12.70;95835.00;;;;5125885;27;20225;-81
2023/04/02 05:41:35;;;;;;;0.50;0.50;;;12.70;66.30;12.70;95838.00;;;;5129032;27;20197;-81
2023/04/02 05:44:12;;;;;;;0.67;0.37;;;12.70;66.20;12.60;95838.00;;;;5132437;27;20201;-81
2023/04/02 05:46:49;;;;;;;0.40;0.40;;;12.70;66.20;12.60;95855.00;;;;5148074;27;20745;-81
2023/04/02 05:49:27;;;;;;;0.93;0.30;;;12.70;66.10;12.60;95853.00;;;;5139813;27;20218;-81
2023/04/02 05:52:00;;;;;;;0.27;0.27;;;12.70;66.10;12.60;95855.00;;;;5110497;28;20718;-81
2023/04/02 05:54:37;;;;;;;0.20;0.20;;;12.70;66.20;12.60;95862.00;;;;5137101;27;20304;-80
2023/04/02 05:57:11;;;;;;;0.30;0.30;;;12.70;66.20;12.60;95861.00;;;;5152059;27;20204;-80
2023/04/02 05:59:44;;;;;;;0.43;0.37;;;12.70;66.30;12.70;95871.00;;;;5152338;27;20281;-78
2023/04/02 06:02:25;;;;;;;0.30;0.30;;;12.70;66.40;12.70;95865.00;;;;5150702;27;20225;-79
2023/04/02 06:05:01;;;;;;;0.77;0.40;;;12.70;66.50;12.70;95872.00;;;;5127406;27;20224;-79
2023/04/02 06:07:36;;;;;;;0.10;0.10;;;12.70;66.50;12.70;95877.00;;;;5135342;27;20242;-80
2023/04/02 06:10:14;;;;;;;1.00;0.30;;;12.80;66.50;12.80;95873.00;;;;5151343;27;20213;-81
2023/04/02 06:12:47;;;;;;;0.80;0.30;;;12.80;66.60;12.80;95885.00;;;;5149756;27;20182;-81
2023/04/02 06:15:17;;;;;;;0.67;0.50;;;12.80;66.70;12.90;95887.00;;;;5146542;27;20214;-81
2023/04/02 06:17:48;;;;;;;0.30;0.30;;;12.80;66.60;12.90;95889.00;;;;5143475;27;20225;-81
2023/04/02 06:20:20;;;;;;;0.30;0.30;;;12.80;66.50;12.90;95894.00;;;;5137713;27;20241;-80
2023/04/02 06:22:53;;;;;;;0.30;0.30;;;12.90;66.50;13.00;95898.00;;;;5151633;27;20182;-78
2023/04/02 06:25:28;;;;;;;0.33;0.20;;;12.90;66.50;13.00;95895.00;;;;5146818;27;20227;-78
2023/04/02 06:28:00;;;;;;;0.40;0.30;;;12.90;66.70;13.00;95897.00;;;;5123005;27;20185;-79
2023/04/02 06:30:33;;;;;;;0.30;0.30;;;12.90;66.50;13.00;95893.00;;;;5128005;27;20228;-78
2023/04/02 06:33:01;;;;;;;0.40;0.37;;;13.00;66.40;13.00;95910.00;;;;5126211;27;20266;-79
2023/04/02 06:35:28;;;;;;;0.47;0.20;;;13.00;66.20;13.00;95909.00;;;;5116068;28;20297;-79
2023/04/02 06:38:02;;;;;;;0.30;0.30;;;13.00;66.90;13.00;95910.00;;;;5117158;27;20261;-79
2023/04/02 06:40:42;;;;;;;0.60;0.40;;;13.00;66.30;13.10;95915.00;;;;5128647;27;20289;-79
2023/04/02 06:43:21;;;;;;;0.50;0.40;;;13.00;66.30;13.10;95910.00;;;;5122678;27;20191;-80
2023/04/02 06:45:54;;;;;;;0.63;0.50;;;13.10;66.50;13.20;95910.00;;;;5118242;27;20586;-80
2023/04/02 06:48:24;;;;;;;0.50;0.50;;;13.10;66.50;13.30;95927.00;;;;5105384;27;20207;-81
2023/04/02 06:51:00;;;;;;;0.40;0.40;;;13.10;66.40;13.40;95922.00;;;;5132555;27;20222;-82
2023/04/02 06:53:34;;;;;;;1.07;0.50;;;13.20;66.50;13.40;95929.00;;;;5132636;27;20254;-80
2023/04/02 06:56:12;;;;;;;0.33;0.23;;;13.20;67.10;13.50;95935.00;;;;5118784;27;20215;-80
2023/04/02 06:58:40;;;;;;;1.33;0.60;;;13.30;66.40;13.60;95940.00;;;;5115436;28;20277;-81
2023/04/02 07:01:08;;;;;;;0.47;0.40;;;13.30;66.30;13.60;95935.00;;;;5130321;27;20235;-80
2023/04/02 07:03:36;;;;;;;0.70;0.30;;;13.40;66.20;13.70;95940.00;;;;5138879;27;20277;-79
2023/04/02 07:06:04;;;;;;;0.40;0.40;;;13.40;66.10;13.70;95939.00;;;;5137510;27;20674;-80
2023/04/02 07:08:31;;;;;;;0.40;0.40;;;13.50;66.10;13.70;95946.00;;;;5121610;27;20205;-82
2023/04/02 07:10:58;;;;;;;0.30;0.30;;;13.50;66.10;13.80;95944.00;;;;5112962;27;20588;-81
2023/04/02 07:13:27;;;;;;;0.73;0.33;;;13.60;66.90;13.90;95952.00;;;;5130425;27;20202;-79
2023/04/02 07:15:59;;;;;;;0.30;0.30;;;13.60;66.20;14.00;95953.00;;;;5114471;28;20221;-80
2023/04/02 07:18:30;;;;;;;0.30;0.30;;;13.70;66.20;14.10;95950.00;;;;5115050;28;20281;-79
2023/04/02 07:20:58;;;;;;;0.40;0.30;;;13.70;66.10;14.10;95955.00;;;;5116353;27;20651;-80
2023/04/02 07:23:27;;;;;;;0.40;0.30;;;13.80;65.90;14.20;95957.00;;;;5112395;28;20252;-81
2023/04/02 07:25:57;;;;;;;0.63;0.37;;;13.90;65.80;14.30;95957.00;;;;5135257;27;20222;-81
2023/04/02 07:28:26;;;;;;;0.60;0.40;;;13.90;65.70;14.30;95964.00;;;;5136999;27;20190;-82
2023/04/02 07:31:00;;;;;;;0.27;0.27;;;14.00;65.50;14.40;95977.00;;;;5117436;27;20215;-81
2023/04/02 07:33:30;;;;;;;0.23;0.23;;;14.00;65.40;14.50;95976.00;;;;5104747;28;20198;-81
2023/04/02 07:35:59;;;;;;;0.53;0.40;;;14.10;66.10;14.50;95975.00;;;;5091125;28;20215;-80
2023/04/02 07:38:26;;;;;;;1.07;0.40;;;14.20;65.40;14.60;95976.00;;;;5118839;27;20670;-80
2023/04/02 07:40:53;;;;;;;0.27;0.27;;;14.20;65.20;14.60;95984.00;;;;5125162;27;20304;-81
2023/04/02 07:43:22;;;;;;;1.60;0.23;;;14.30;65.10;14.70;95985.00;;;;5116198;28;20198;-81
2023/04/02 07:45:52;;;;;;;0.60;0.23;;;14.40;65.00;14.70;95992.00;;;;5099236;28;20268;-80
2023/04/02 07:48:19;;;;;;;0.47;0.40;;;14.40;64.80;14.80;95992.00;;;;5121434;27;20206;-81
2023/04/02 07:50:47;;;;;;;1.90;0.37;;;14.50;64.80;14.90;95997.00;;;;5130652;27;20720;-81
2023/04/02 07:53:29;;;;;;;0.53;0.30;;;14.60;64.90;15.00;96001.00;;;;5136066;27;20729;-80
2023/04/02 07:55:58;;;;;;;1.60;0.40;;;14.60;64.40;15.10;96001.00;;;;5136578;27;20217;-79
2023/04/02 07:58:26;;;;;;;0.73;0.30;;;14.70;64.40;15.10;96007.00;;;;5131762;27;20195;-81
2023/04/02 08:00:55;;;;;;;0.27;0.27;;;14.80;64.00;15.10;96008.00;;;;5116385;27;20216;-81
2023/04/02 08:03:23;;;;;;;0.73;0.30;;;14.80;63.80;15.20;96016.00;;;;5124130;27;20644;-79
2023/04/02 08:05:53;;;;;;;1.50;0.30;;;14.80;63.80;15.20;96006.00;;;;5115899;27;20206;-79
2023/04/02 08:08:20;;;;;;;0.57;0.30;;;14.90;63.70;15.30;96015.00;;;;5118030;28;20727;-80
2023/04/02 08:10:49;;;;;;;1.33;0.50;;;14.90;63.60;15.30;96016.00;;;;5116695;28;20779;-79
2023/04/02 08:13:18;;;;;;;0.50;0.50;;;15.00;63.50;15.40;96015.00;;;;5120503;27;20255;-79
2023/04/02 08:15:45;;;;;;;0.80;0.43;;;15.00;63.50;15.40;96022.00;;;;5116645;27;20230;-77
2023/04/02 08:18:14;;;;;;;0.27;0.20;;;15.10;63.40;15.40;96028.00;;;;5125149;27;20201;-79
2023/04/02 08:20:41;;;;;;;0.20;0.20;;;15.10;63.20;15.50;96026.00;;;;5129179;27;20240;-79
2023/04/02 08:23:17;;;;;;;0.40;0.40;;;15.20;63.10;15.50;96043.00;;;;5140745;27;20190;-79
2023/04/02 08:25:45;;;;;;;0.40;0.40;;;15.20;62.90;15.50;96042.00;;;;5123698;27;20194;-80
2023/04/02 08:28:12;;;;;;;0.33;0.27;;;15.20;62.80;15.50;96050.00;;;;5115540;28;20599;-83
2023/04/02 08:30:41;;;;;;;0.47;0.30;;;15.20;62.50;15.50;96040.00;;;;5117394;27;20277;-79
2023/04/02 08:33:09;;;;;;;0.23;0.20;;;15.30;62.60;15.50;96039.00;;;;5129009;27;20203;-81
2023/04/02 08:35:39;;;;;;;0.70;0.50;;;15.30;62.30;15.50;96043.00;;;;5122234;27;20244;-80
2023/04/02 08:38:08;;;;;;;0.27;0.20;;;15.30;62.30;15.60;96052.00;;;;5115076;28;20231;-81
2023/04/02 08:40:39;;;;;;;0.83;0.50;;;15.30;62.50;15.60;96052.00;;;;5120580;27;20214;-80
2023/04/02 08:43:41;;;;;;;1.07;0.60;;;15.30;62.20;15.60;96048.00;;;;5131660;27;20186;-81
2023/04/02 08:46:18;;;;;;;1.03;0.40;;;15.30;62.00;15.60;96053.00;;;;5138621;28;20213;-81
2023/04/02 08:48:55;;;;;;;0.47;0.47;;;15.30;62.50;15.70;96057.00;;;;5158448;27;20220;-81
2023/04/02 08:51:28;;;;;;;0.30;0.30;;;15.40;62.40;15.70;96065.00;;;;5150823;27;20685;-80
2023/04/02 08:54:02;;;;;;;0.60;0.37;;;15.40;62.10;15.70;96058.00;;;;5129865;28;20198;-80
2023/04/02 08:56:40;;;;;;;0.90;0.30;;;15.40;62.20;15.70;96061.00;;;;5136003;28;20292;-81
2023/04/02 08:59:24;;;;;;;0.20;0.20;;;15.40;62.10;15.70;96060.00;;;;5130607;27;20232;-81
2023/04/02 09:02:06;;;;;;;0.30;0.30;;;15.40;62.10;15.80;96062.00;;;;5117425;28;20297;-83
2023/04/02 09:04:40;;;;;;;0.97;0.47;;;15.50;62.00;15.80;96069.00;;;;5117441;28;20590;-81
2023/04/02 09:07:15;;;;;;;0.30;0.30;;;15.50;62.20;15.80;96077.00;;;;5113037;28;20201;-80
2023/04/02 09:09:44;;;;;;;0.40;0.30;;;15.50;62.10;15.80;96064.00;;;;5110026;28;20221;-81
2023/04/02 09:12:20;;;;;;;1.70;0.67;;;15.50;62.20;15.90;96075.00;;;;5116268;28;20190;-80
2023/04/02 09:15:06;;;;;;;0.87;0.43;;;15.50;62.00;15.90;96079.00;;;;5098211;28;20629;-82
2023/04/02 09:17:33;;;;;;;0.30;0.30;;;15.60;61.90;15.90;96075.00;;;;5124661;27;20670;-80
2023/04/02 09:20:16;;;;;;;0.43;0.20;;;15.60;62.20;16.00;96077.00;;;;5135588;27;20206;-82
2023/04/02 09:22:47;;;;;;;0.30;0.30;;;15.60;62.50;16.00;96083.00;;;;5124536;28;20198;-80
2023/04/02 09:25:20;;;;;;;0.37;0.37;;;15.60;62.30;16.00;96090.00;;;;5116160;27;20267;-82
2023/04/02 09:27:50;;;;;;;0.40;0.10;;;15.70;62.30;16.00;96094.00;;;;5102809;28;20221;-80
2023/04/02 09:30:37;;;;;;;0.30;0.30;;;15.70;62.30;16.00;96094.00;;;;5116099;27;20769;-81
2023/04/02 09:33:06;;;;;;;0.53;0.30;;;15.70;62.40;16.00;96102.00;;;;5123722;27;20191;-82
2023/04/02 09:35:35;;;;;;;0.33;0.33;;;15.70;62.50;16.00;96103.00;;;;5131471;27;20214;-79
2023/04/02 09:38:21;;;;;;;0.23;0.23;;;15.70;62.40;16.00;96109.00;;;;5127246;27;20233;-81
2023/04/02 09:40:51;;;;;;;0.43;0.43;;;15.70;62.60;16.00;96104.00;;;;5126037;27;20275;-80
2023/04/02 09:43:21;;;;;;;0.40;0.30;;;15.70;62.80;16.00;96109.00;;;;5128922;27;20217;-80
2023/04/02 09:46:00;;;;;;;0.37;0.37;;;15.70;62.70;16.00;96114.00;;;;5124643;27;20197;-80
2023/04/02 09:48:31;;;;;;;0.27;0.27;;;15.70;62.40;16.00;96122.00;;;;5119355;28;20206;-80
2023/04/02 09:51:18;;;;;;;0.83;0.30;;;15.70;62.30;16.00;96114.00;;;;5125824;27;20213;-81
2023/04/02 09:53:50;;;;;;;0.27;0.27;;;15.70;62.30;16.00;96117.00;;;;5116602;28;20281;-79
2023/04/02 09:56:22;;;;;;;0.80;0.77;;;15.70;62.60;16.00;96116.00;;;;5117127;27;20614;-80
2023/04/02 09:59:05;;;;;;;1.07;0.53;;;15.70;62.90;16.00;96125.00;;;;5128393;27;20724;-81
2023/04/02 10:01:35;;;;;;;1.27;0.50;;;15.70;62.60;16.10;96126.00;;;;5126185;27;20198;-81
2023/04/02 10:04:05;;;;;;;0.33;0.30;;;15.80;62.60;16.20;96128.00;;;;5124033;28;20198;-81
2023/04/02 10:06:35;;;;;;;1.30;0.20;;;15.80;62.80;16.30;96131.00;;;;5141730;27;20205;-79
2023/04/02 10:09:28;;;;;;;0.40;0.20;;;15.80;63.00;16.40;96133.00;;;;5111752;27;20225;-81
2023/04/02 10:11:57;;;;;;;0.40;0.30;;;15.90;62.60;16.50;96142.00;;;;5121501;27;20194;-81
2023/04/02 10:14:30;;;;;;;0.40;0.40;;;16.00;63.00;16.50;96142.00;;;;5110007;27;20761;-81
2023/04/02 10:17:06;;;;;;;0.60;0.40;;;16.00;62.80;16.60;96145.00;;;;5133823;27;20215;-81
2023/04/02 10:19:38;;;;;;;0.40;0.40;;;16.10;62.60;16.70;96143.00;;;;5132862;27;20218;-80
2023/04/02 10:22:14;;;;;;;0.80;0.50;;;16.20;62.30;16.70;96142.00;;;;5144882;27;20258;-81
2023/04/02 10:24:43;;;;;;;0.57;0.57;;;16.20;62.40;16.80;96146.00;;;;5108318;28;20208;-81
2023/04/02 10:27:25;;;;;;;0.67;0.40;;;16.20;62.40;16.80;96137.00;;;;5125954;28;20298;-80
2023/04/02 10:30:19;;;;;;;0.40;0.40;;;16.30;62.20;16.80;96144.00;;;;5100068;28;20215;-80
2023/04/02 10:32:54;;;;;;;0.40;0.40;;;16.40;62.20;16.90;96145.00;;;;5137238;27;20201;-80
2023/04/02 10:35:42;;;;;;;0.50;0.50;;;16.40;62.40;16.90;96148.00;;;;5127128;28;20618;-80
2023/04/02 10:38:37;;;;;;;1.00;0.50;;;16.50;62.20;16.90;96143.00;;;;5131311;27;20199;-81
2023/04/02 10:41:27;;;;;;;0.40;0.40;;;16.50;62.70;16.80;96155.00;;;;5123973;27;20205;-80
2023/04/02 10:44:28;;;;;;;0.40;0.33;;;16.50;62.30;16.70;96156.00;;;;5134296;27;20194;-81
2023/04/02 10:47:28;;;;;;;0.60;0.60;;;16.40;61.90;16.60;96160.00;;;;5131627;27;20721;-82
2023/04/02 10:50:13;;;;;;;0.33;0.33;;;16.40;62.20;16.50;96153.00;;;;5118552;27;20218;-81
2023/04/02 10:52:51;;;;;;;0.33;0.33;;;16.30;62.40;16.40;96158.00;;;;5110126;28;20573;-81
2023/04/02 10:55:26;;;;;;;0.50;0.50;;;16.30;62.60;16.30;96167.00;;;;5119800;27;20221;-83
2023/04/02 10:58:00;;;;;;;0.57;0.40;;;16.20;62.90;16.20;96171.00;;;;5119177;27;20198;-81
2023/04/02 11:00:33;;;;;;;0.60;0.60;;;16.10;63.40;16.10;96171.00;;;;5122469;27;20251;-81
2023/04/02 11:03:08;;;;;;;0.53;0.43;;;16.00;63.70;16.10;96172.00;;;;5141038;27;20577;-81
2023/04/02 11:05:42;;;;;;;0.50;0.50;;;15.90;64.10;16.10;96171.00;;;;5124492;27;20198;-81
2023/04/02 11:08:18;;;;;;;1.90;0.70;;;15.90;64.70;16.10;96176.00;;;;5118212;28;20198;-81
2023/04/02 11:10:52;;;;;;;0.60;0.60;;;15.90;65.20;16.10;96178.00;;;;5124810;27;20794;-81
2023/04/02 11:13:30;;;;;;;0.70;0.70;;;15.80;65.30;16.10;96176.00;;;;5132508;27;20189;-81
2023/04/02 11:15:58;;;;;;;1.30;1.30;;;15.80;65.70;16.20;96186.00;;;;5123230;27;20304;-82
2023/04/02 11:18:33;;;;;;;0.70;0.70;;;15.80;65.70;16.20;96188.00;;;;5138125;27;20197;-81
2023/04/02 11:21:06;;;;;;;0.53;0.53;;;15.80;65.60;16.10;96181.00;;;;5131454;27;20279;-83
2023/04/02 11:23:53;;;;;;;0.43;0.43;;;15.80;65.70;16.20;96191.00;;;;5124882;27;20194;-82
2023/04/02 11:26:41;;;;;;;0.87;0.60;;;15.80;66.10;16.20;96193.00;;;;5131205;27;20194;-80
2023/04/02 11:29:30;;;;;;;0.30;0.30;;;15.80;66.90;16.20;96193.00;;;;5146300;27;20220;-81